Time;durP1;ratioP1;P1;durP2;ratioP2;P2;SDS_P1;SDS_P2;PMS_P1;PMS_P2;Temp;Humidity;BMP_temperature;BMP_pressure;BME280_temperature;BME280_humidity;BME280_pressure;Samples;Min_cycle;Max_cycle;Signal;HPM_P1;HPM_P2
2022/07/15 21:13:48;;;;;;;0.93;0.40;;;;;;;32.21;21.96;101187.31;5142647;23;20049;-77
2022/07/15 21:16:16;;;;;;;0.95;0.50;;;;;;;32.37;20.36;101183.75;4889458;29;20086;-75
2022/07/15 21:18:45;;;;;;;1.15;0.47;;;;;;;32.47;21.78;101183.19;4890223;29;20060;-75
2022/07/15 21:21:13;;;;;;;0.80;0.50;;;;;;;32.56;22.59;101184.50;4885369;29;20501;-76
2022/07/15 21:23:42;;;;;;;3.75;0.50;;;;;;;32.62;21.71;101186.88;4890429;29;20112;-75
2022/07/15 21:28:58;;;;;;;3.42;0.70;;;;;;;32.48;21.31;101178.69;4884015;29;20482;-76
2022/07/15 21:31:27;;;;;;;0.85;0.50;;;;;;;32.56;21.44;101187.19;4891305;29;20081;-75
2022/07/15 21:33:55;;;;;;;1.30;0.50;;;;;;;32.61;21.96;101185.13;4894448;29;20585;-75
2022/07/15 21:36:23;;;;;;;0.63;0.50;;;;;;;32.72;21.27;101188.06;4890519;29;20596;-77
2022/07/15 21:38:52;;;;;;;4.07;0.60;;;;;;;32.89;22.54;101180.88;4893281;29;20426;-76
2022/07/15 21:41:21;;;;;;;1.23;0.50;;;;;;;32.94;21.42;101181.44;4892128;29;20049;-76
2022/07/15 21:43:50;;;;;;;0.57;0.40;;;;;;;32.99;21.59;101174.03;4887774;29;20124;-76
2022/07/15 21:46:21;;;;;;;3.70;0.70;;;;;;;32.99;21.04;101176.72;4890392;29;20052;-74
2022/07/15 21:48:49;;;;;;;1.98;0.57;;;;;;;32.93;21.04;101174.38;4877228;29;20049;-76
2022/07/15 21:51:18;;;;;;;2.13;0.50;;;;;;;32.87;21.06;101169.38;4878625;29;20057;-76
2022/07/15 21:53:46;;;;;;;2.08;0.50;;;;;;;32.76;21.83;101164.63;4878265;29;20045;-75
2022/07/15 21:56:15;;;;;;;0.75;0.52;;;;;;;32.82;22.47;101166.94;4886968;29;20079;-76
2022/07/15 21:58:43;;;;;;;1.92;0.90;;;;;;;32.91;23.91;101171.78;4882734;29;20534;-76
2022/07/15 22:01:12;;;;;;;5.18;0.95;;;;;;;32.94;23.15;101165.38;4888508;29;20495;-75
2022/07/15 22:03:43;;;;;;;2.67;0.60;;;;;;;33.03;22.72;101163.97;4893347;29;20056;-76
2022/07/15 22:06:11;;;;;;;2.13;0.60;;;;;;;33.13;22.92;101165.22;4873050;29;20053;-77
2022/07/15 22:08:40;;;;;;;1.25;0.47;;;;;;;33.03;23.06;101163.97;4862705;29;20049;-76
2022/07/15 22:11:09;;;;;;;1.90;0.60;;;;;;;33.07;22.72;101161.06;4868271;29;20136;-77
2022/07/15 22:13:39;;;;;;;2.22;0.65;;;;;;;33.14;22.37;101154.38;4871249;29;20053;-76
2022/07/15 22:16:08;;;;;;;1.70;0.65;;;;;;;33.10;22.47;101160.91;4869996;29;20045;-77
2022/07/15 22:18:36;;;;;;;1.95;0.50;;;;;;;33.06;23.54;101170.06;4876742;29;20061;-77
2022/07/15 22:21:07;;;;;;;1.02;0.57;;;;;;;33.17;23.47;101156.91;4871712;29;20048;-76
2022/07/15 22:23:35;;;;;;;2.33;0.60;;;;;;;33.22;24.04;101150.41;4881630;29;20545;-76
2022/07/15 22:26:05;;;;;;;1.73;0.50;;;;;;;33.24;23.42;101146.69;4871085;29;20048;-77
2022/07/15 22:28:33;;;;;;;3.15;0.50;;;;;;;33.25;24.50;101152.91;4866941;29;20570;-76
2022/07/15 22:31:02;;;;;;;1.38;0.50;;;;;;;33.15;23.85;101147.22;4873514;29;20091;-79
2022/07/15 22:33:30;;;;;;;1.05;0.55;;;;;;;33.11;24.01;101148.34;4871253;29;20492;-79
2022/07/15 22:35:59;;;;;;;2.10;0.70;;;;;;;33.07;24.37;101144.97;4866839;29;20053;-79
2022/07/15 22:38:29;;;;;;;1.50;0.70;;;;;;;33.13;23.04;101143.75;4862605;29;20189;-78
2022/07/15 22:40:58;;;;;;;2.38;0.50;;;;;;;33.10;22.92;101133.19;4865874;29;20151;-77
2022/07/15 22:43:27;;;;;;;0.70;0.50;;;;;;;32.75;24.12;101134.28;4863951;29;20564;-76
2022/07/15 22:45:55;;;;;;;2.38;0.65;;;;;;;32.35;24.39;101136.53;4862528;29;20069;-78
2022/07/15 22:48:24;;;;;;;0.63;0.50;;;;;;;32.19;24.77;101140.16;4867236;29;20397;-78
2022/07/15 22:50:53;;;;;;;1.92;0.60;;;;;;;32.12;25.07;101128.91;4877504;29;20097;-78
2022/07/15 22:53:22;;;;;;;6.63;0.88;;;;;;;32.18;24.33;101125.00;4865147;29;20148;-77
2022/07/15 22:55:53;;;;;;;1.05;0.75;;;;;;;31.86;25.32;101128.47;4875237;29;20056;-76
2022/07/15 22:58:24;;;;;;;0.88;0.45;;;;;;;31.85;25.33;101131.25;4868234;29;20068;-77
2022/07/15 23:00:52;;;;;;;0.68;0.57;;;;;;;31.99;24.78;101127.84;4867044;29;20128;-77
2022/07/15 23:03:21;;;;;;;2.35;0.70;;;;;;;32.10;26.30;101120.97;4872411;29;20065;-77
2022/07/15 23:05:49;;;;;;;3.63;0.68;;;;;;;32.16;26.58;101119.75;4865233;29;20116;-78
2022/07/15 23:08:19;;;;;;;1.08;0.43;;;;;;;32.14;26.30;101119.00;4872441;29;20052;-77
2022/07/15 23:10:47;;;;;;;2.38;0.40;;;;;;;32.19;25.23;101108.88;4867062;29;20053;-79
2022/07/15 23:13:18;;;;;;;0.47;0.38;;;;;;;32.29;25.85;101115.44;4864747;29;20062;-77
2022/07/15 23:15:46;;;;;;;0.57;0.50;;;;;;;32.04;25.46;101115.06;4863818;29;20456;-78
2022/07/15 23:18:15;;;;;;;0.65;0.30;;;;;;;31.98;25.76;101112.72;4859076;29;20109;-76
2022/07/15 23:20:43;;;;;;;1.65;0.50;;;;;;;32.05;26.62;101108.78;4854907;29;20053;-77
2022/07/15 23:23:12;;;;;;;1.15;0.65;;;;;;;31.87;26.24;101102.59;4858219;29;20060;-75
2022/07/15 23:25:40;;;;;;;0.95;0.47;;;;;;;31.81;26.31;101106.44;4856877;29;20312;-75
2022/07/15 23:28:09;;;;;;;7.10;0.63;;;;;;;31.85;26.87;101109.84;4854535;29;20049;-79
2022/07/15 23:30:42;;;;;;;1.08;0.52;;;;;;;31.97;26.00;101111.00;4853713;29;20109;-77
2022/07/15 23:33:11;;;;;;;1.42;0.50;;;;;;;32.03;26.34;101108.00;4855444;29;20679;-77
2022/07/15 23:35:40;;;;;;;1.27;0.45;;;;;;;32.06;27.87;101108.69;4852945;29;20057;-78
2022/07/15 23:38:08;;;;;;;1.13;0.60;;;;;;;32.18;27.61;101107.13;4851180;29;20140;-77
2022/07/15 23:40:37;;;;;;;2.25;0.40;;;;;;;32.23;27.35;101094.38;4846239;29;20042;-77
2022/07/15 23:43:05;;;;;;;1.95;0.43;;;;;;;32.26;26.23;101094.19;4853591;29;20698;-79
2022/07/15 23:45:34;;;;;;;1.27;0.50;;;;;;;32.35;27.06;101087.47;4855123;29;20049;-78
2022/07/15 23:48:04;;;;;;;0.85;0.40;;;;;;;32.33;28.53;101078.66;4859840;29;20161;-77
2022/07/15 23:50:33;;;;;;;3.15;0.45;;;;;;;32.44;26.60;101083.41;4861944;29;20064;-78
2022/07/15 23:53:01;;;;;;;1.65;0.40;;;;;;;32.46;26.90;101085.03;4858852;29;20531;-76
2022/07/15 23:55:30;;;;;;;1.70;0.50;;;;;;;32.53;27.98;101088.28;4863244;29;20053;-78
2022/07/15 23:57:59;;;;;;;1.23;0.50;;;;;;;32.53;26.91;101091.81;4858174;29;20057;-78
